createdAt,value
2023-01-10T00:01:49.432Z,100830.47
2023-01-10T00:04:18.929Z,100819.31
2023-01-10T00:06:47.074Z,100823.00
2023-01-10T00:09:15.540Z,100824.59
2023-01-10T00:12:01.175Z,100812.91
2023-01-10T00:14:30.018Z,100806.00
2023-01-10T00:16:58.214Z,100801.63
2023-01-10T00:19:27.736Z,100813.09
2023-01-10T00:22:02.714Z,100813.19
2023-01-10T00:24:31.387Z,100814.25
2023-01-10T00:26:59.557Z,100814.84
2023-01-10T00:29:31.319Z,100809.31
2023-01-10T00:31:59.985Z,100806.72
2023-01-10T00:34:30.145Z,100805.66
2023-01-10T00:36:58.187Z,100803.00
2023-01-10T00:39:27.718Z,100820.03
2023-01-10T00:42:12.955Z,100820.88
2023-01-10T00:44:41.160Z,100822.38
2023-01-10T00:47:09.347Z,100814.88
2023-01-10T00:49:38.908Z,100830.13
2023-01-10T00:52:07.021Z,100831.06
2023-01-10T00:54:35.332Z,100832.56
2023-01-10T00:57:03.463Z,100835.75
2023-01-10T00:59:31.711Z,100834.69
2023-01-10T01:01:59.889Z,100844.13
2023-01-10T01:04:27.903Z,100833.16
2023-01-10T01:06:59.406Z,100827.59
2023-01-10T01:09:28.505Z,100832.81
2023-01-10T01:11:56.661Z,100828.81
2023-01-10T01:14:25.460Z,100817.06
2023-01-10T01:16:53.508Z,100817.06
2023-01-10T01:19:21.525Z,100815.88
2023-01-10T01:21:49.677Z,100809.19
2023-01-10T01:24:19.027Z,100802.91
2023-01-10T01:26:47.186Z,100798.53
2023-01-10T01:29:17.272Z,100792.72
2023-01-10T01:31:45.931Z,100791.91
2023-01-10T01:34:14.738Z,100778.44
2023-01-10T01:36:42.706Z,100774.94
2023-01-10T01:39:10.867Z,100776.25
2023-01-10T01:41:59.112Z,100775.31
2023-01-10T01:44:32.713Z,100777.50
2023-01-10T01:47:04.784Z,100779.53
2023-01-10T01:49:36.067Z,100765.53
2023-01-10T01:52:08.049Z,100773.69
2023-01-10T01:54:37.092Z,100782.38
2023-01-10T01:57:11.645Z,100784.88
2023-01-10T01:59:43.269Z,100776.38
2023-01-10T02:02:16.292Z,100788.38
2023-01-10T02:04:52.168Z,100788.97
2023-01-10T02:07:23.561Z,100793.81
2023-01-10T02:09:55.775Z,100795.28
2023-01-10T02:12:27.565Z,100801.22
2023-01-10T02:14:55.678Z,100811.06
2023-01-10T02:17:23.797Z,100802.94
2023-01-10T02:22:53.210Z,100790.28
2023-01-10T02:25:55.299Z,100783.31
2023-01-10T02:28:58.797Z,100781.97
2023-01-10T02:34:41.666Z,100784.16
2023-01-10T02:37:17.295Z,100785.19
2023-01-10T02:39:59.686Z,100784.06
2023-01-10T02:42:36.655Z,100787.63
2023-01-10T02:45:12.192Z,100784.16
2023-01-10T02:47:41.575Z,100794.03
2023-01-10T02:50:43.346Z,100794.59
2023-01-10T02:53:17.833Z,100776.94
2023-01-10T02:56:01.989Z,100789.47
2023-01-10T02:58:41.633Z,100788.00
2023-01-10T03:01:18.357Z,100780.19
2023-01-10T03:03:53.533Z,100791.53
2023-01-10T03:06:31.982Z,100799.06
2023-01-10T03:09:06.152Z,100798.00
2023-01-10T03:11:44.545Z,100799.66
2023-01-10T03:14:18.657Z,100796.88
2023-01-10T03:16:51.201Z,100793.31
2023-01-10T03:19:22.827Z,100792.28
2023-01-10T03:21:57.388Z,100795.41
2023-01-10T03:24:29.927Z,100794.53
2023-01-10T03:27:03.760Z,100795.41
2023-01-10T03:29:40.642Z,100787.63
2023-01-10T03:32:13.275Z,100799.28
2023-01-10T03:34:42.072Z,100779.47
2023-01-10T03:37:17.337Z,100795.25
2023-01-10T03:39:55.242Z,100795.69
2023-01-10T03:42:55.335Z,100800.78
2023-01-10T03:45:28.224Z,100798.69
2023-01-10T03:47:59.489Z,100806.44
2023-01-10T03:50:29.321Z,100809.94
2023-01-10T03:52:59.189Z,100798.25
2023-01-10T03:55:29.668Z,100794.13
2023-01-10T03:57:57.630Z,100802.09
2023-01-10T04:00:26.283Z,100791.56
2023-01-10T04:02:54.279Z,100775.56
2023-01-10T04:05:22.359Z,100796.03
2023-01-10T04:07:50.333Z,100796.03
2023-01-10T04:10:21.135Z,100809.84
2023-01-10T04:12:49.468Z,100811.00
2023-01-10T04:15:17.468Z,100807.72
2023-01-10T04:17:48.319Z,100809.41
2023-01-10T04:20:16.527Z,100818.50
2023-01-10T04:22:47.241Z,100806.03
2023-01-10T04:25:15.432Z,100814.19
2023-01-10T04:27:44.803Z,100818.75
2023-01-10T04:30:13.503Z,100805.59
2023-01-10T04:32:41.678Z,100807.25
2023-01-10T04:35:10.471Z,100806.38
2023-01-10T04:37:38.929Z,100813.34
2023-01-10T04:40:08.494Z,100815.50
2023-01-10T04:42:36.721Z,100812.34
2023-01-10T04:45:07.220Z,100797.69
2023-01-10T04:47:35.288Z,100799.63
2023-01-10T04:50:03.222Z,100811.69
2023-01-10T04:52:31.508Z,100812.13
2023-01-10T04:54:59.448Z,100820.03
2023-01-10T04:57:27.512Z,100812.19
2023-01-10T04:59:55.500Z,100815.78
2023-01-10T05:02:25.013Z,100821.09
2023-01-10T05:04:53.149Z,100819.56
2023-01-10T05:07:21.278Z,100813.00
2023-01-10T05:09:49.225Z,100811.31
2023-01-10T05:12:17.355Z,100806.19
2023-01-10T05:14:45.358Z,100804.50
2023-01-10T05:17:13.320Z,100800.56
2023-01-10T05:19:42.737Z,100809.53
2023-01-10T05:22:10.752Z,100802.13
2023-01-10T05:24:39.051Z,100797.53
2023-01-10T05:27:07.119Z,100798.06
2023-01-10T05:29:35.168Z,100795.97
2023-01-10T05:32:03.345Z,100807.44
2023-01-10T05:34:31.352Z,100809.19
2023-01-10T05:37:00.732Z,100802.94
2023-01-10T05:39:28.705Z,100800.06
2023-01-10T05:41:56.822Z,100801.13
2023-01-10T05:44:24.801Z,100799.53
2023-01-10T05:46:52.925Z,100803.03
2023-01-10T05:49:20.976Z,100808.19
2023-01-10T05:51:48.955Z,100808.03
2023-01-10T05:54:18.670Z,100807.19
2023-01-10T05:56:46.659Z,100813.03
2023-01-10T05:59:27.539Z,100815.88
2023-01-10T06:01:56.420Z,100806.19
2023-01-10T06:04:24.877Z,100794.31
2023-01-10T06:06:55.992Z,100800.38
2023-01-10T06:09:25.370Z,100798.34
2023-01-10T06:11:53.318Z,100803.28
2023-01-10T06:14:21.311Z,100799.13
2023-01-10T06:16:49.708Z,100798.69
2023-01-10T06:19:18.371Z,100797.13
2023-01-10T06:21:46.399Z,100806.59
2023-01-10T06:24:14.589Z,100811.72
2023-01-10T06:26:43.934Z,100799.31
2023-01-10T06:29:12.002Z,100810.03
2023-01-10T06:31:40.373Z,100807.75
2023-01-10T06:34:08.525Z,100808.53
2023-01-10T06:36:36.751Z,100820.53
2023-01-10T06:39:05.296Z,100823.84
2023-01-10T06:41:33.402Z,100830.06
2023-01-10T06:44:02.719Z,100834.22
2023-01-10T06:46:30.813Z,100831.25
2023-01-10T06:48:58.786Z,100828.00
2023-01-10T06:51:26.911Z,100833.81
2023-01-10T06:53:54.984Z,100828.44
2023-01-10T06:56:23.107Z,100838.28
2023-01-10T06:58:51.581Z,100838.41
2023-01-10T07:01:22.596Z,100851.69
2023-01-10T07:03:50.641Z,100852.88
2023-01-10T07:06:18.691Z,100858.81
2023-01-10T07:08:47.960Z,100856.47
2023-01-10T07:11:17.397Z,100852.41
2023-01-10T07:13:45.492Z,100850.50
2023-01-10T07:16:15.171Z,100848.59
2023-01-10T07:18:46.880Z,100855.59
2023-01-10T07:21:16.799Z,100853.72
2023-01-10T07:23:44.769Z,100850.94
2023-01-10T07:26:17.671Z,100839.91
2023-01-10T07:28:46.673Z,100839.78
2023-01-10T07:31:15.135Z,100838.94
2023-01-10T07:33:43.279Z,100842.88
2023-01-10T07:36:12.902Z,100844.97
2023-01-10T07:38:41.169Z,100837.31
2023-01-10T07:41:09.285Z,100843.03
2023-01-10T07:43:37.897Z,100838.88
2023-01-10T07:46:09.600Z,100833.38
2023-01-10T07:48:38.188Z,100833.03
2023-01-10T07:51:07.321Z,100835.63
2023-01-10T07:53:36.665Z,100840.72
2023-01-10T07:56:05.521Z,100836.56
2023-01-10T07:58:34.321Z,100836.28
2023-01-10T08:01:06.041Z,100827.84
2023-01-10T08:03:34.571Z,100831.03
2023-01-10T08:06:04.335Z,100827.75
2023-01-10T08:08:33.060Z,100827.59
2023-01-10T08:11:03.599Z,100822.56
2023-01-10T08:13:32.852Z,100824.28
2023-01-10T08:16:01.335Z,100830.13
2023-01-10T08:18:29.325Z,100834.16
2023-01-10T08:20:58.108Z,100834.88
2023-01-10T08:23:26.852Z,100841.78
2023-01-10T08:25:55.302Z,100859.97
2023-01-10T08:28:24.777Z,100857.75
2023-01-10T08:30:56.189Z,100855.84
2023-01-10T08:33:24.908Z,100849.13
2023-01-10T08:35:52.985Z,100862.81
2023-01-10T08:38:21.103Z,100854.63
2023-01-10T08:40:49.209Z,100849.31
2023-01-10T08:43:17.203Z,100844.97
2023-01-10T08:45:47.480Z,100846.69
2023-01-10T08:48:15.650Z,100853.38
2023-01-10T08:50:43.879Z,100854.75
2023-01-10T08:53:13.913Z,100846.13
2023-01-10T08:55:41.878Z,100848.25
2023-01-10T08:58:11.089Z,100853.91
2023-01-10T09:00:39.212Z,100853.69
2023-01-10T09:03:09.429Z,100850.91
2023-01-10T09:05:37.637Z,100853.44
2023-01-10T09:08:06.144Z,100861.16
2023-01-10T09:10:37.112Z,100868.69
2023-01-10T09:13:06.032Z,100856.47
2023-01-10T09:15:35.951Z,100853.19
2023-01-10T09:18:05.961Z,100855.28
2023-01-10T09:20:38.153Z,100855.91
2023-01-10T09:23:08.461Z,100859.63
2023-01-10T09:25:36.514Z,100859.94
2023-01-10T09:28:06.214Z,100856.66
2023-01-10T09:30:34.278Z,100856.22
2023-01-10T09:33:02.972Z,100858.78
2023-01-10T09:35:32.158Z,100854.88
2023-01-10T09:38:02.603Z,100851.78
2023-01-10T09:40:51.839Z,100848.78
2023-01-10T09:43:27.645Z,100849.38
2023-01-10T09:46:02.635Z,100854.56
2023-01-10T09:48:38.904Z,100854.72
2023-01-10T09:51:21.068Z,100856.53
2023-01-10T09:53:55.637Z,100848.69
2023-01-10T09:56:24.343Z,100846.97
2023-01-10T09:58:53.027Z,100839.06
2023-01-10T10:01:25.408Z,100833.13
2023-01-10T10:04:01.758Z,100834.78
2023-01-10T10:06:30.024Z,100837.00
2023-01-10T10:08:59.405Z,100831.28
2023-01-10T10:11:43.381Z,100836.88
2023-01-10T10:14:25.279Z,100831.63
2023-01-10T10:17:10.003Z,100830.44
2023-01-10T10:19:53.887Z,100831.47
2023-01-10T10:22:29.688Z,100823.78
2023-01-10T10:25:11.471Z,100824.75
2023-01-10T10:27:53.532Z,100824.09
2023-01-10T10:30:39.338Z,100829.06
2023-01-10T10:33:26.670Z,100824.75
2023-01-10T10:36:01.205Z,100820.56
2023-01-10T10:38:33.441Z,100816.63
2023-01-10T10:41:03.613Z,100816.09
2023-01-10T10:43:34.390Z,100812.38
2023-01-10T10:46:08.107Z,100797.94
2023-01-10T10:48:42.236Z,100795.84
2023-01-10T10:51:15.841Z,100778.56
2023-01-10T10:53:43.894Z,100764.16
2023-01-10T10:56:17.131Z,100771.94
2023-01-10T10:58:47.329Z,100766.63
2023-01-10T11:01:16.251Z,100762.56
2023-01-10T11:03:50.676Z,100754.53
2023-01-10T11:06:20.255Z,100744.97
2023-01-10T11:08:52.119Z,100739.47
2023-01-10T11:11:25.922Z,100736.88
2023-01-10T11:13:56.860Z,100733.25
2023-01-10T11:16:31.005Z,100733.25
2023-01-10T11:19:21.413Z,100720.25
2023-01-10T11:21:53.476Z,100713.25
2023-01-10T11:24:33.837Z,100719.72
2023-01-10T11:27:06.181Z,100712.34
2023-01-10T11:29:40.038Z,100723.13
2023-01-10T11:32:15.517Z,100714.19
2023-01-10T11:34:53.975Z,100695.38
2023-01-10T11:37:29.187Z,100695.78
2023-01-10T11:40:29.720Z,100683.34
2023-01-10T11:43:00.346Z,100680.38
2023-01-10T11:45:31.927Z,100681.28
2023-01-10T11:48:07.961Z,100674.09
2023-01-10T11:50:38.568Z,100669.97
2023-01-10T11:53:08.868Z,100660.91
2023-01-10T11:55:39.486Z,100649.50
2023-01-10T11:58:15.131Z,100647.75
2023-01-10T12:00:47.192Z,100646.44
2023-01-10T12:03:23.529Z,100645.16
2023-01-10T12:05:53.855Z,100639.88
2023-01-10T12:08:30.991Z,100642.94
2023-01-10T12:11:02.489Z,100636.03
2023-01-10T12:13:47.699Z,100638.66
2023-01-10T12:16:24.795Z,100628.06
2023-01-10T12:18:54.518Z,100627.91
2023-01-10T12:21:31.352Z,100623.94
2023-01-10T12:24:03.506Z,100619.72
2023-01-10T12:26:33.047Z,100624.63
2023-01-10T12:29:09.907Z,100618.38
2023-01-10T12:31:41.357Z,100614.16
2023-01-10T12:34:20.088Z,100621.94
2023-01-10T12:37:01.733Z,100621.00
2023-01-10T12:39:35.100Z,100614.66
2023-01-10T12:42:35.266Z,100611.56
2023-01-10T12:45:10.910Z,100606.19
2023-01-10T12:47:57.026Z,100605.81
2023-01-10T12:50:30.265Z,100603.13
2023-01-10T12:53:01.976Z,100593.28
2023-01-10T12:55:35.764Z,100598.69
2023-01-10T12:58:06.523Z,100583.44
2023-01-10T13:00:47.615Z,100570.25
2023-01-10T13:03:20.804Z,100564.72
2023-01-10T13:05:50.721Z,100570.06
2023-01-10T13:08:22.357Z,100566.41
2023-01-10T13:10:53.691Z,100553.41
2023-01-10T13:13:28.995Z,100558.94
2023-01-10T13:16:04.073Z,100553.09
2023-01-10T13:18:34.896Z,100547.72
2023-01-10T13:21:13.336Z,100543.50
2023-01-10T13:23:49.712Z,100542.53
2023-01-10T13:26:18.483Z,100539.34
2023-01-10T13:28:56.647Z,100541.84
2023-01-10T13:31:31.049Z,100544.06
2023-01-10T13:34:01.745Z,100540.00
2023-01-10T13:36:39.711Z,100530.63
2023-01-10T13:39:21.161Z,100531.31
2023-01-10T13:42:31.293Z,100528.47
2023-01-10T13:45:29.848Z,100532.50
2023-01-10T13:48:24.476Z,100528.78
2023-01-10T13:51:14.617Z,100533.16
2023-01-10T13:53:55.033Z,100531.47
2023-01-10T13:56:40.901Z,100532.13
2023-01-10T13:59:32.367Z,100529.28
2023-01-10T14:02:20.912Z,100510.44
2023-01-10T14:04:53.857Z,100509.78
2023-01-10T14:07:28.935Z,100512.47
2023-01-10T14:10:04.927Z,100516.50
2023-01-10T14:12:36.346Z,100513.09
2023-01-10T14:15:09.870Z,100516.69
2023-01-10T14:17:39.073Z,100514.00
2023-01-10T14:20:20.917Z,100513.81
2023-01-10T14:23:02.367Z,100513.78
2023-01-10T14:25:33.130Z,100516.81
2023-01-10T14:28:02.460Z,100516.31
2023-01-10T14:30:33.038Z,100523.38
2023-01-10T14:33:05.695Z,100517.50
2023-01-10T14:35:43.751Z,100517.34
2023-01-10T14:38:20.289Z,100526.25
2023-01-10T14:40:52.097Z,100527.94
2023-01-10T14:43:26.629Z,100529.94
2023-01-10T14:46:02.162Z,100534.66
2023-01-10T14:48:32.293Z,100525.75
2023-01-10T14:51:22.506Z,100530.28
2023-01-10T14:53:57.951Z,100540.41
2023-01-10T14:56:28.543Z,100540.88
2023-01-10T14:58:59.369Z,100540.72
2023-01-10T15:01:29.649Z,100533.31
2023-01-10T15:03:58.526Z,100536.84
2023-01-10T15:06:27.900Z,100538.38
2023-01-10T15:09:00.806Z,100536.84
2023-01-10T15:11:31.590Z,100536.00
2023-01-10T15:14:07.679Z,100526.25
2023-01-10T15:16:38.916Z,100544.41
2023-01-10T15:19:07.151Z,100541.19
2023-01-10T15:21:43.359Z,100538.34
2023-01-10T15:24:33.978Z,100541.69
2023-01-10T15:27:05.009Z,100552.44
2023-01-10T15:29:34.484Z,100549.06
2023-01-10T15:32:10.418Z,100552.59
2023-01-10T15:34:40.023Z,100549.75
2023-01-10T15:37:20.379Z,100548.41
2023-01-10T15:39:49.119Z,100552.94
2023-01-10T15:42:20.678Z,100548.88
2023-01-10T15:44:52.566Z,100535.59
2023-01-10T15:47:37.911Z,100542.16
2023-01-10T15:50:20.001Z,100538.81
2023-01-10T15:52:55.461Z,100541.47
2023-01-10T15:55:48.333Z,100544.94
2023-01-10T15:58:20.341Z,100537.84
2023-01-10T16:00:50.699Z,100544.38
2023-01-10T16:03:27.869Z,100545.34
2023-01-10T16:05:59.239Z,100534.38
2023-01-10T16:08:32.669Z,100532.66
2023-01-10T16:11:04.384Z,100535.66
2023-01-10T16:13:33.185Z,100536.59
2023-01-10T16:16:03.345Z,100537.91
2023-01-10T16:18:31.768Z,100538.69
2023-01-10T16:21:02.828Z,100540.78
2023-01-10T16:23:35.480Z,100541.38
2023-01-10T16:26:08.467Z,100543.88
2023-01-10T16:28:39.352Z,100546.81
2023-01-10T16:31:11.506Z,100555.22
2023-01-10T16:33:40.544Z,100555.78
2023-01-10T16:36:16.163Z,100564.19
2023-01-10T16:38:45.830Z,100569.75
2023-01-10T16:41:32.597Z,100560.56
2023-01-10T16:44:01.694Z,100569.09
2023-01-10T16:46:30.374Z,100563.63
2023-01-10T16:48:58.465Z,100556.53
2023-01-10T16:51:28.779Z,100563.88
2023-01-10T16:53:58.268Z,100563.63
2023-01-10T16:56:27.926Z,100564.63
2023-01-10T16:58:56.659Z,100560.88
2023-01-10T17:01:31.499Z,100562.59
2023-01-10T17:04:00.451Z,100570.63
2023-01-10T17:06:28.850Z,100559.38
2023-01-10T17:08:58.189Z,100556.56
2023-01-10T17:11:30.959Z,100565.31
2023-01-10T17:13:59.848Z,100560.66
2023-01-10T17:16:28.059Z,100572.19
2023-01-10T17:18:56.045Z,100567.66
2023-01-10T17:21:24.824Z,100566.78
2023-01-10T17:23:52.828Z,100573.25
2023-01-10T17:26:22.180Z,100565.38
2023-01-10T17:28:50.244Z,100569.34
2023-01-10T17:31:19.964Z,100568.06
2023-01-10T17:33:49.066Z,100564.81
2023-01-10T17:36:19.100Z,100567.19
2023-01-10T17:38:47.476Z,100559.88
2023-01-10T17:41:15.510Z,100567.31
2023-01-10T17:43:44.855Z,100563.91
2023-01-10T17:46:14.033Z,100567.84
2023-01-10T17:48:42.198Z,100570.09
2023-01-10T17:51:11.892Z,100559.63
2023-01-10T17:53:40.181Z,100563.81
2023-01-10T17:56:09.146Z,100558.44
2023-01-10T17:58:37.245Z,100566.44
2023-01-10T18:01:07.013Z,100563.63
2023-01-10T18:03:35.554Z,100562.66
2023-01-10T18:06:05.533Z,100562.78
2023-01-10T18:08:33.641Z,100564.88
2023-01-10T18:11:02.458Z,100568.00
2023-01-10T18:13:31.712Z,100568.59
2023-01-10T18:16:00.892Z,100573.38
2023-01-10T18:18:31.338Z,100573.59
2023-01-10T18:21:02.348Z,100574.28
2023-01-10T18:23:31.846Z,100574.69
2023-01-10T18:26:01.837Z,100579.47
2023-01-10T18:28:40.678Z,100582.56
2023-01-10T18:31:11.700Z,100593.19
2023-01-10T18:33:41.654Z,100597.22
2023-01-10T18:36:14.333Z,100596.75
2023-01-10T18:38:46.187Z,100595.34
2023-01-10T18:41:14.338Z,100604.75
2023-01-10T18:43:42.514Z,100598.00
2023-01-10T18:46:12.848Z,100600.06
2023-01-10T18:48:42.978Z,100600.81
2023-01-10T18:51:12.682Z,100607.13
2023-01-10T18:53:41.350Z,100611.91
2023-01-10T18:56:10.633Z,100613.13
2023-01-10T18:58:40.179Z,100613.13
2023-01-10T19:01:09.233Z,100610.00
2023-01-10T19:03:37.823Z,100612.34
2023-01-10T19:06:11.081Z,100607.72
2023-01-10T19:08:39.707Z,100614.88
2023-01-10T19:11:16.484Z,100611.38
2023-01-10T19:13:45.621Z,100612.97
2023-01-10T19:16:15.726Z,100614.72
2023-01-10T19:18:45.146Z,100611.13
2023-01-10T19:21:16.195Z,100611.13
2023-01-10T19:23:44.662Z,100601.81
2023-01-10T19:26:13.134Z,100605.81
2023-01-10T19:28:46.061Z,100600.00
2023-01-10T19:31:17.149Z,100611.88
2023-01-10T19:33:47.682Z,100609.81
2023-01-10T19:36:18.149Z,100595.56
2023-01-10T19:38:46.389Z,100588.91
2023-01-10T19:41:16.053Z,100593.38
2023-01-10T19:43:44.085Z,100560.41
2023-01-10T19:46:13.394Z,100594.22
2023-01-10T19:48:41.388Z,100589.16
2023-01-10T19:51:11.031Z,100598.25
2023-01-10T19:53:42.317Z,100606.72
2023-01-10T19:56:10.886Z,100601.63
2023-01-10T19:58:39.524Z,100607.31
2023-01-10T20:01:09.259Z,100602.81
2023-01-10T20:03:38.179Z,100596.66
2023-01-10T20:06:08.338Z,100593.00
2023-01-10T20:08:36.480Z,100593.25
2023-01-10T20:11:07.688Z,100589.88
2023-01-10T20:13:38.230Z,100590.72
2023-01-10T20:16:07.395Z,100588.19
2023-01-10T20:18:35.423Z,100579.47
2023-01-10T20:21:06.584Z,100580.56
2023-01-10T20:23:35.004Z,100579.97
2023-01-10T20:26:06.962Z,100572.47
2023-01-10T20:28:35.413Z,100575.13
2023-01-10T20:31:04.107Z,100570.34
2023-01-10T20:33:34.565Z,100559.94
2023-01-10T20:36:04.797Z,100561.66
2023-01-10T20:38:34.909Z,100562.13
2023-01-10T20:41:06.430Z,100554.28
2023-01-10T20:43:35.368Z,100545.94
2023-01-10T20:46:06.888Z,100549.44
2023-01-10T20:48:35.662Z,100541.22
2023-01-10T20:51:03.710Z,100543.88
2023-01-10T20:53:32.119Z,100539.19
2023-01-10T20:56:03.187Z,100538.97
2023-01-10T20:58:33.008Z,100540.78
2023-01-10T21:01:00.984Z,100529.53
2023-01-10T21:03:29.098Z,100533.88
2023-01-10T21:05:58.602Z,100513.81
2023-01-10T21:08:29.691Z,100523.22
2023-01-10T21:10:58.519Z,100515.47
2023-01-10T21:13:26.960Z,100520.06
2023-01-10T21:15:58.279Z,100517.16
2023-01-10T21:18:28.083Z,100514.25
2023-01-10T21:20:58.176Z,100506.19
2023-01-10T21:23:27.661Z,100506.41
2023-01-10T21:26:01.042Z,100510.75
2023-01-10T21:28:29.127Z,100503.84
2023-01-10T21:30:58.496Z,100506.19
2023-01-10T21:33:26.625Z,100504.97
2023-01-10T21:35:55.098Z,100502.31
2023-01-10T21:38:23.094Z,100494.41
2023-01-10T21:40:51.138Z,100495.28
2023-01-10T21:43:19.155Z,100483.44
2023-01-10T21:45:49.878Z,100489.34
2023-01-10T21:48:19.274Z,100478.50
2023-01-10T21:50:49.523Z,100477.41
2023-01-10T21:53:17.495Z,100474.13
2023-01-10T21:55:45.753Z,100466.66
2023-01-10T21:58:13.685Z,100475.34
2023-01-10T22:00:41.732Z,100469.31
2023-01-10T22:03:09.903Z,100472.91
2023-01-10T22:05:39.247Z,100465.91
2023-01-10T22:08:07.342Z,100463.63
2023-01-10T22:10:35.317Z,100470.28
2023-01-10T22:13:03.401Z,100464.72
2023-01-10T22:15:31.984Z,100463.50
2023-01-10T22:18:08.813Z,100463.72
2023-01-10T22:20:36.802Z,100469.94
2023-01-10T22:23:06.190Z,100465.69
2023-01-10T22:25:34.312Z,100460.31
2023-01-10T22:28:02.265Z,100457.06
2023-01-10T22:30:30.246Z,100447.03
2023-01-10T22:32:58.548Z,100436.41
2023-01-10T22:35:27.376Z,100445.94
2023-01-10T22:37:56.804Z,100442.47
2023-01-10T22:40:26.221Z,100433.53
2023-01-10T22:42:54.745Z,100435.88
2023-01-10T22:45:22.833Z,100430.00
2023-01-10T22:47:51.255Z,100428.91
2023-01-10T22:50:19.840Z,100428.41
2023-01-10T22:52:49.464Z,100420.66
2023-01-10T22:55:18.515Z,100427.66
2023-01-10T22:57:48.051Z,100426.00
2023-01-10T23:00:16.574Z,100428.91
2023-01-10T23:02:44.599Z,100424.16
2023-01-10T23:05:12.798Z,100420.34
2023-01-10T23:07:40.831Z,100418.41
2023-01-10T23:10:24.395Z,100415.25
2023-01-10T23:12:58.777Z,100415.63
2023-01-10T23:15:26.739Z,100415.47
2023-01-10T23:17:54.737Z,100416.53
2023-01-10T23:20:22.786Z,100411.38
2023-01-10T23:22:50.694Z,100411.03
2023-01-10T23:25:18.830Z,100404.72
2023-01-10T23:27:46.891Z,100409.81
2023-01-10T23:30:16.818Z,100397.00
2023-01-10T23:32:44.724Z,100389.41
2023-01-10T23:35:12.836Z,100369.75
2023-01-10T23:37:40.786Z,100380.59
2023-01-10T23:40:10.277Z,100372.63
2023-01-10T23:42:38.164Z,100376.03
2023-01-10T23:45:07.309Z,100370.34
2023-01-10T23:47:36.622Z,100376.16
2023-01-10T23:50:05.420Z,100364.91
2023-01-10T23:52:33.381Z,100365.75
2023-01-10T23:55:01.325Z,100360.19
2023-01-10T23:57:29.215Z,100359.59
2023-01-10T23:59:59.840Z,100367.53
